Time;durP1;ratioP1;P1;durP2;ratioP2;P2;SDS_P1;SDS_P2;PMS_P1;PMS_P2;Temp;Humidity;BMP_temperature;BMP_pressure;BME280_temperature;BME280_humidity;BME280_pressure;Samples;Min_cycle;Max_cycle;Signal;HPM_P1;HPM_P2
2022/12/22 03:25:49;;;;;;;10.07;9.57;;;;;;;-2.79;100.00;100924.94;5012302;28;20060;-72
2022/12/22 03:28:15;;;;;;;10.63;10.07;;;;;;;-2.67;100.00;100922.59;5011474;28;20109;-72
2022/12/22 03:30:41;;;;;;;10.52;10.02;;;;;;;-3.08;100.00;100923.84;5010996;28;20133;-72
2022/12/22 03:33:06;;;;;;;11.30;10.70;;;;;;;-2.94;100.00;100930.88;5012017;28;20028;-72
2022/12/22 03:35:32;;;;;;;11.38;10.75;;;;;;;-2.72;100.00;100927.19;5013156;28;20029;-72
2022/12/22 03:38:02;;;;;;;10.05;9.55;;;;;;;-3.10;100.00;100930.00;5012901;28;20025;-72
2022/12/22 03:40:32;;;;;;;10.55;10.05;;;;;;;-2.85;100.00;100939.97;5009597;28;20056;-72
2022/12/22 03:48:26;;;;;;;10.20;9.70;;;;;;;-2.99;100.00;100919.91;5013351;28;20393;-72
2022/12/22 03:50:51;;;;;;;10.60;10.10;;;;;;;-2.78;100.00;100921.41;5012069;28;20030;-73
2022/12/22 03:53:17;;;;;;;10.40;9.90;;;;;;;-3.10;100.00;100909.25;5009902;28;20021;-72
2022/12/22 03:55:42;;;;;;;10.90;10.30;;;;;;;-2.92;100.00;100920.44;5009975;28;20038;-72
2022/12/22 03:58:08;;;;;;;10.20;9.70;;;;;;;-2.93;100.00;100913.59;5011680;28;20590;-71
2022/12/22 04:00:33;;;;;;;9.98;9.48;;;;;;;-3.20;100.00;100892.47;5014905;28;20037;-72
2022/12/22 04:02:59;;;;;;;10.75;10.15;;;;;;;-3.09;100.00;100908.31;5017398;28;20107;-73
2022/12/22 04:05:25;;;;;;;11.75;11.05;;;;;;;-2.95;100.00;100905.84;5014680;28;20712;-72
2022/12/22 04:07:50;;;;;;;10.25;9.75;;;;;;;-2.90;100.00;100882.25;5015099;28;20477;-71
2022/12/22 04:12:59;;;;;;;10.68;10.18;;;;;;;-2.82;100.00;100900.88;5016787;28;20033;-73
2022/12/22 04:15:28;;;;;;;10.40;9.90;;;;;;;-2.64;100.00;100902.50;5018327;28;20033;-73
2022/12/22 04:17:55;;;;;;;11.13;10.52;;;;;;;-2.51;100.00;100902.69;5017795;28;20025;-73
2022/12/22 04:20:22;;;;;;;10.30;9.80;;;;;;;-3.01;100.00;100867.25;5018638;28;20026;-72
2022/12/22 04:22:48;;;;;;;10.38;9.88;;;;;;;-3.04;100.00;100895.94;5016807;28;20099;-72
2022/12/22 04:25:14;;;;;;;10.80;10.20;;;;;;;-3.04;100.00;100910.69;5017131;28;20488;-72
2022/12/22 04:27:40;;;;;;;10.50;10.00;;;;;;;-3.26;100.00;100901.41;5018069;28;20018;-72
2022/12/22 04:30:06;;;;;;;10.38;9.88;;;;;;;-3.29;100.00;100901.56;5020521;28;20084;-73
2022/12/22 04:32:32;;;;;;;11.10;10.50;;;;;;;-2.99;100.00;100898.31;5016799;28;20110;-72
2022/12/22 04:34:58;;;;;;;11.50;10.90;;;;;;;-3.21;100.00;100895.97;5017525;28;20049;-71
2022/12/22 04:37:23;;;;;;;10.15;9.65;;;;;;;-3.40;100.00;100883.09;5017724;28;20037;-72
2022/12/22 04:39:49;;;;;;;10.48;9.98;;;;;;;-3.45;100.00;100877.28;5018120;28;20064;-70
2022/12/22 04:42:14;;;;;;;11.13;10.52;;;;;;;-3.49;100.00;100902.53;5017078;28;20157;-72
2022/12/22 04:44:40;;;;;;;10.95;10.43;;;;;;;-3.31;100.00;100893.00;5018161;28;20018;-70
2022/12/22 04:47:05;;;;;;;11.23;10.63;;;;;;;-3.33;100.00;100898.25;5019271;28;20432;-74
2022/12/22 04:49:30;;;;;;;10.70;10.20;;;;;;;-3.50;100.00;100885.31;5019617;28;20113;-72
2022/12/22 04:51:56;;;;;;;10.95;10.45;;;;;;;-3.55;100.00;100892.47;5018042;28;20092;-72
2022/12/22 04:54:21;;;;;;;10.73;10.23;;;;;;;-3.49;100.00;100886.16;5018960;28;20481;-73
2022/12/22 04:56:47;;;;;;;11.23;10.73;;;;;;;-3.34;100.00;100893.16;5020833;28;20030;-73
2022/12/22 04:59:12;;;;;;;11.63;10.93;;;;;;;-3.51;100.00;100890.59;5017544;28;20038;-72
2022/12/22 05:01:38;;;;;;;11.57;10.98;;;;;;;-3.47;100.00;100886.91;5017604;28;20034;-72
2022/12/22 05:04:03;;;;;;;10.38;9.88;;;;;;;-3.48;100.00;100886.06;5018122;28;20065;-72
2022/12/22 05:06:29;;;;;;;10.68;10.18;;;;;;;-3.29;100.00;100888.59;5015234;28;20045;-73
2022/12/22 05:08:54;;;;;;;10.77;10.27;;;;;;;-3.44;100.00;100891.97;5017799;28;20109;-72
2022/12/22 05:11:20;;;;;;;11.85;11.15;;;;;;;-3.38;100.00;100886.44;5015217;28;20025;-72
2022/12/22 05:13:45;;;;;;;11.05;10.45;;;;;;;-3.29;100.00;100900.72;5011319;28;20084;-72
2022/12/22 05:16:14;;;;;;;11.82;11.13;;;;;;;-3.36;100.00;100908.81;5013877;28;20045;-72
2022/12/22 05:18:41;;;;;;;10.45;9.95;;;;;;;-3.15;100.00;100909.50;5012780;28;20502;-72
2022/12/22 05:21:12;;;;;;;11.00;10.43;;;;;;;-3.35;100.00;100910.47;5015936;28;20393;-71
2022/12/22 05:23:38;;;;;;;10.35;9.85;;;;;;;-3.34;100.00;100906.13;5014939;28;20033;-72
2022/12/22 05:26:03;;;;;;;10.50;10.00;;;;;;;-3.13;100.00;100912.84;5015288;28;20026;-72
2022/12/22 05:28:30;;;;;;;11.65;11.02;;;;;;;-3.39;100.00;100915.88;5014899;28;20500;-72
2022/12/22 05:30:56;;;;;;;11.95;11.25;;;;;;;-3.18;100.00;100924.34;5015264;28;20124;-73
2022/12/22 05:33:22;;;;;;;11.45;10.77;;;;;;;-3.15;100.00;100926.81;5012818;28;20113;-72
2022/12/22 05:35:47;;;;;;;10.60;10.10;;;;;;;-3.29;100.00;100919.72;5014744;28;20022;-72
2022/12/22 05:38:13;;;;;;;11.45;10.85;;;;;;;-3.05;100.00;100925.41;5015865;28;20037;-73
2022/12/22 05:40:38;;;;;;;10.85;10.25;;;;;;;-3.08;100.00;100934.22;5014341;28;20037;-74
2022/12/22 05:43:04;;;;;;;10.13;9.63;;;;;;;-3.21;100.00;100930.56;5014419;28;20037;-72
2022/12/22 05:45:30;;;;;;;11.20;10.60;;;;;;;-2.89;100.00;100928.06;5015314;28;20374;-74
2022/12/22 05:47:55;;;;;;;11.55;10.85;;;;;;;-3.04;100.00;100926.25;5016544;28;20022;-73
2022/12/22 05:50:23;;;;;;;10.27;9.77;;;;;;;-2.94;100.00;100938.66;5012871;28;20025;-74
2022/12/22 05:52:49;;;;;;;10.85;10.25;;;;;;;-2.89;100.00;100925.47;5017881;28;20025;-72
2022/12/22 05:55:15;;;;;;;11.10;10.50;;;;;;;-2.88;100.00;100938.38;5016205;28;20468;-74
2022/12/22 05:57:41;;;;;;;10.50;10.00;;;;;;;-2.98;100.00;100936.34;5016763;28;20636;-72
2022/12/22 06:00:11;;;;;;;10.88;10.27;;;;;;;-2.83;100.00;100938.13;5016427;28;20030;-73
2022/12/22 06:02:38;;;;;;;11.20;10.60;;;;;;;-3.13;100.00;100936.19;5016210;28;20543;-74
2022/12/22 06:05:04;;;;;;;10.68;10.18;;;;;;;-3.04;100.00;100928.84;5014482;28;20054;-73
2022/12/22 06:07:29;;;;;;;11.57;10.90;;;;;;;-2.71;100.00;100932.31;5014757;28;20033;-72
2022/12/22 06:09:55;;;;;;;11.63;10.95;;;;;;;-2.84;100.00;100949.44;5014903;28;20459;-72
2022/12/22 06:12:20;;;;;;;10.73;10.13;;;;;;;-2.82;100.00;100955.38;5013334;28;20076;-73
2022/12/22 06:14:46;;;;;;;10.23;9.73;;;;;;;-2.95;100.00;100956.94;5013312;28;20025;-74
2022/12/22 06:17:11;;;;;;;10.20;9.70;;;;;;;-3.06;100.00;100947.94;5014620;28;20477;-73
2022/12/22 06:19:37;;;;;;;12.68;11.88;;;;;;;-2.93;100.00;100957.72;5014624;28;20030;-73
2022/12/22 06:22:02;;;;;;;10.25;9.75;;;;;;;-2.62;100.00;100954.38;5012233;28;20022;-72
2022/12/22 06:24:28;;;;;;;10.75;10.15;;;;;;;-2.69;100.00;100951.25;5011552;28;20034;-71
2022/12/22 06:26:53;;;;;;;11.82;11.13;;;;;;;-3.07;100.00;100964.44;5014344;28;20087;-71
2022/12/22 06:29:19;;;;;;;10.70;10.20;;;;;;;-2.85;100.00;100961.59;5012656;28;20505;-72
2022/12/22 06:31:44;;;;;;;11.18;10.57;;;;;;;-2.79;100.00;100957.84;5014236;28;20034;-72
2022/12/22 06:34:10;;;;;;;11.05;10.45;;;;;;;-2.86;100.00;100961.69;5014175;28;20022;-73
2022/12/22 06:36:37;;;;;;;11.88;11.18;;;;;;;-2.46;100.00;100972.59;5015603;28;21528;-73
2022/12/22 06:39:04;;;;;;;10.98;10.38;;;;;;;-2.48;100.00;100969.22;5012032;28;20066;-71
2022/12/22 06:44:13;;;;;;;10.60;10.10;;;;;;;-2.70;100.00;100969.50;5011602;28;20037;-73
2022/12/22 06:46:39;;;;;;;10.57;10.02;;;;;;;-2.31;100.00;100966.56;5010874;28;20404;-73
2022/12/22 06:49:04;;;;;;;10.98;10.38;;;;;;;-2.34;100.00;100964.16;5013642;28;20037;-73
2022/12/22 06:51:30;;;;;;;10.93;10.32;;;;;;;-2.42;100.00;100976.69;5014451;28;20109;-73
2022/12/22 06:53:55;;;;;;;10.27;9.77;;;;;;;-2.37;100.00;100964.28;5013799;28;20038;-72
2022/12/22 06:56:20;;;;;;;10.20;9.70;;;;;;;-2.61;100.00;100971.63;5014320;28;20445;-72
2022/12/22 06:58:46;;;;;;;10.13;9.63;;;;;;;-2.42;100.00;100961.97;5015874;28;20022;-72
2022/12/22 07:01:11;;;;;;;9.80;9.30;;;;;;;-2.57;100.00;100954.94;5012470;28;20022;-73
2022/12/22 07:03:37;;;;;;;10.00;9.50;;;;;;;-2.24;100.00;100942.78;5013931;28;20025;-72
2022/12/22 07:06:03;;;;;;;11.40;10.70;;;;;;;-2.42;100.00;100945.50;5009296;28;20473;-71
2022/12/22 07:08:28;;;;;;;10.15;9.65;;;;;;;-2.69;100.00;100934.84;5010197;28;20032;-72
2022/12/22 07:10:56;;;;;;;9.70;9.20;;;;;;;-2.24;100.00;100939.34;5011845;28;20057;-74
2022/12/22 07:13:22;;;;;;;10.48;9.90;;;;;;;-2.13;100.00;100950.00;5011520;28;20041;-71
2022/12/22 07:15:48;;;;;;;10.40;9.82;;;;;;;-2.06;100.00;100942.69;5010796;28;20041;-70
2022/12/22 07:18:14;;;;;;;10.73;10.13;;;;;;;-1.80;100.00;100951.66;5012270;28;20018;-71
2022/12/22 07:20:39;;;;;;;10.65;10.05;;;;;;;-1.88;100.00;100940.84;5011810;28;20025;-71
2022/12/22 07:23:05;;;;;;;11.60;10.90;;;;;;;-1.71;100.00;100940.75;5009385;28;20058;-71
2022/12/22 07:25:30;;;;;;;10.70;10.10;;;;;;;-1.81;100.00;100943.03;5007974;28;20508;-70
2022/12/22 07:27:56;;;;;;;10.20;9.70;;;;;;;-1.88;100.00;100936.50;5011786;28;20040;-70
2022/12/22 07:30:21;;;;;;;9.98;9.48;;;;;;;-1.80;100.00;100933.47;5010082;28;20038;-69
2022/12/22 07:32:47;;;;;;;10.18;9.68;;;;;;;-2.16;100.00;100934.56;5011667;28;20030;-70
2022/12/22 07:35:12;;;;;;;9.98;9.48;;;;;;;-1.96;100.00;100936.91;5008684;28;20017;-70
2022/12/22 07:37:38;;;;;;;10.85;10.25;;;;;;;-2.04;100.00;100935.66;5011381;28;20046;-69
2022/12/22 07:40:04;;;;;;;11.02;10.40;;;;;;;-2.17;100.00;100926.84;5009912;28;20489;-70
2022/12/22 07:42:44;;;;;;;10.00;9.50;;;;;;;-1.87;100.00;100937.31;5011927;28;20095;-69
2022/12/22 07:45:18;;;;;;;11.65;10.95;;;;;;;-2.11;100.00;100926.53;5001292;28;20030;-70
2022/12/22 07:47:45;;;;;;;10.95;10.35;;;;;;;-2.26;100.00;100934.22;5010139;28;20022;-75
2022/12/22 07:50:26;;;;;;;10.68;10.07;;;;;;;-2.26;100.00;100936.84;5010528;28;20039;-73
2022/12/22 07:52:59;;;;;;;10.38;9.88;;;;;;;-1.62;100.00;100932.41;5027378;28;20028;-76
2022/12/22 07:55:28;;;;;;;10.23;9.73;;;;;;;-2.08;100.00;100929.78;5008870;28;20046;-72
2022/12/22 07:57:54;;;;;;;10.35;9.85;;;;;;;-1.94;100.00;100934.22;5011050;28;20033;-73
2022/12/22 08:00:21;;;;;;;10.20;9.70;;;;;;;-2.11;100.00;100934.31;5011467;28;20030;-73
2022/12/22 08:02:51;;;;;;;10.32;9.77;;;;;;;-1.60;100.00;100924.53;5010170;28;20037;-73
2022/12/22 08:05:17;;;;;;;9.80;9.30;;;;;;;-0.87;100.00;100931.50;5009474;28;20037;-73
2022/12/22 08:07:42;;;;;;;10.52;9.93;;;;;;;-0.76;100.00;100927.41;5010548;28;20029;-74
2022/12/22 08:10:09;;;;;;;9.60;9.13;;;;;;;-0.60;100.00;100929.00;5010398;28;20061;-75
2022/12/22 08:12:35;;;;;;;10.30;9.70;;;;;;;-0.60;100.00;100936.81;5009372;28;20030;-72
2022/12/22 08:15:00;;;;;;;9.23;8.80;;;;;;;-1.32;100.00;100931.59;5011277;28;20496;-74
2022/12/22 08:17:26;;;;;;;10.38;9.77;;;;;;;-1.04;100.00;100938.63;5010520;28;20401;-75
2022/12/22 08:19:53;;;;;;;9.60;9.13;;;;;;;-0.85;100.00;100944.44;5008720;28;20458;-74
2022/12/22 08:22:22;;;;;;;9.88;9.38;;;;;;;-0.55;100.00;100933.94;5008350;28;20072;-74
2022/12/22 08:24:54;;;;;;;9.75;9.25;;;;;;;-1.26;100.00;100926.03;5009268;28;20334;-74
2022/12/22 08:27:26;;;;;;;10.45;9.85;;;;;;;-0.61;100.00;100916.91;5025594;28;20030;-75
2022/12/22 08:29:56;;;;;;;9.88;9.38;;;;;;;-0.81;100.00;100913.81;5009180;28;20120;-73
2022/12/22 08:32:21;;;;;;;10.77;10.18;;;;;;;-0.52;100.00;100915.50;5010069;28;20044;-74
2022/12/22 08:34:50;;;;;;;10.32;9.82;;;;;;;-0.22;100.00;100906.69;5011920;28;20021;-72
2022/12/22 08:37:19;;;;;;;10.68;10.07;;;;;;;-0.54;100.00;100906.09;5010543;28;20026;-74
2022/12/22 08:39:49;;;;;;;9.77;9.27;;;;;;;-0.60;100.00;100910.75;5041317;28;20045;-73
2022/12/22 08:42:19;;;;;;;10.68;10.07;;;;;;;0.62;100.00;100904.72;5007351;28;20037;-73
2022/12/22 08:44:46;;;;;;;10.00;9.50;;;;;;;-0.13;100.00;100900.94;5004056;28;20676;-74
2022/12/22 08:47:11;;;;;;;9.32;8.88;;;;;;;-0.26;100.00;100898.25;5003989;28;20164;-76
2022/12/22 08:49:37;;;;;;;9.40;8.95;;;;;;;0.05;100.00;100889.31;5015260;28;20046;-73
2022/12/22 08:52:03;;;;;;;9.40;8.90;;;;;;;0.77;100.00;100895.88;5011273;28;20030;-75
2022/12/22 08:54:28;;;;;;;10.40;9.85;;;;;;;-0.28;100.00;100885.31;5009384;28;20142;-76
2022/12/22 08:56:54;;;;;;;10.60;10.00;;;;;;;-0.26;100.00;100887.81;5015976;28;20101;-75
2022/12/22 08:59:20;;;;;;;10.38;9.80;;;;;;;-0.79;100.00;100885.94;5013650;28;20044;-75
2022/12/22 09:01:49;;;;;;;10.55;9.98;;;;;;;-0.32;100.00;100889.03;5009930;28;20022;-75
2022/12/22 09:04:17;;;;;;;12.57;11.77;;;;;;;-0.21;100.00;100885.78;5010134;28;20033;-75
2022/12/22 09:06:44;;;;;;;10.23;9.70;;;;;;;0.44;100.00;100898.97;5032948;28;20029;-74
2022/12/22 09:09:12;;;;;;;10.40;9.82;;;;;;;0.85;100.00;100897.13;5018348;28;20017;-74
2022/12/22 09:11:39;;;;;;;11.55;10.85;;;;;;;1.39;100.00;100884.66;5016777;28;20026;-74
2022/12/22 09:14:06;;;;;;;9.63;9.13;;;;;;;1.06;100.00;100877.38;5012061;28;20056;-74
2022/12/22 09:16:33;;;;;;;12.68;11.85;;;;;;;0.62;100.00;100875.19;5010217;28;20057;-75
2022/12/22 09:18:59;;;;;;;11.02;10.43;;;;;;;0.18;100.00;100868.50;5017095;28;20030;-75
2022/12/22 09:21:31;;;;;;;10.40;9.82;;;;;;;1.64;100.00;100874.16;5013042;28;20113;-75
2022/12/22 09:23:57;;;;;;;10.88;10.27;;;;;;;0.88;100.00;100870.78;5016015;28;20044;-75
2022/12/22 09:26:25;;;;;;;10.60;10.00;;;;;;;0.32;100.00;100871.03;5006986;28;20030;-73
2022/12/22 09:28:51;;;;;;;10.05;9.55;;;;;;;0.72;100.00;100866.59;5009852;28;20088;-74
2022/12/22 09:31:18;;;;;;;10.63;10.02;;;;;;;0.83;100.00;100869.34;5006612;28;20026;-74
2022/12/22 09:33:44;;;;;;;11.63;10.93;;;;;;;0.56;100.00;100863.34;5027180;28;20032;-76
2022/12/22 09:36:13;;;;;;;10.07;9.57;;;;;;;0.66;100.00;100859.22;5014792;28;20404;-72
2022/12/22 09:38:39;;;;;;;9.95;9.45;;;;;;;0.93;100.00;100864.31;5013466;28;20026;-74
2022/12/22 09:41:16;;;;;;;10.40;9.88;;;;;;;2.04;100.00;100862.63;5013933;28;20060;-75
2022/12/22 09:43:43;;;;;;;10.60;10.00;;;;;;;1.91;100.00;100853.06;5014011;28;20156;-75
2022/12/22 09:46:20;;;;;;;11.93;11.23;;;;;;;2.02;100.00;100831.34;5012906;28;20460;-75
2022/12/22 09:48:45;;;;;;;9.98;9.48;;;;;;;1.23;100.00;100832.63;5012721;28;20029;-71
2022/12/22 09:51:12;;;;;;;10.77;10.18;;;;;;;1.92;100.00;100839.03;5011628;28;20547;-73
2022/12/22 09:53:39;;;;;;;10.45;9.90;;;;;;;1.84;100.00;100845.78;5010889;28;20120;-73
2022/12/22 09:56:05;;;;;;;10.85;10.25;;;;;;;1.83;100.00;100838.84;5012182;28;20116;-73
2022/12/22 09:58:33;;;;;;;10.57;9.98;;;;;;;1.59;100.00;100830.97;5013517;28;20110;-74
2022/12/22 10:01:04;;;;;;;10.15;9.65;;;;;;;1.42;100.00;100831.34;5012354;28;20084;-75
2022/12/22 10:03:49;;;;;;;10.60;10.02;;;;;;;1.15;100.00;100832.34;5010870;28;20512;-73
2022/12/22 10:06:14;;;;;;;;;;;;;;;1.27;100.00;100828.03;5012492;28;20068;-72
2022/12/22 10:08:40;;;;;;;11.70;11.00;;;;;;;1.84;100.00;100809.97;5013161;28;19945;-74
2022/12/22 10:11:12;;;;;;;10.25;9.75;;;;;;;2.17;100.00;100821.53;5013911;28;20022;-71
2022/12/22 10:13:38;;;;;;;10.85;10.25;;;;;;;2.54;100.00;100816.16;5014153;28;20022;-75
2022/12/22 10:16:36;;;;;;;9.80;9.30;;;;;;;1.91;100.00;100805.97;5011889;28;20121;-72
2022/12/22 10:19:12;;;;;;;10.85;10.25;;;;;;;2.17;100.00;100790.94;4969731;28;20045;-73
2022/12/22 10:21:39;;;;;;;10.27;9.77;;;;;;;1.30;100.00;100791.22;5026988;28;20400;-74
2022/12/22 10:24:36;;;;;;;10.43;9.88;;;;;;;1.85;100.00;100780.25;5013174;28;20037;-73
2022/12/22 10:27:03;;;;;;;10.15;9.65;;;;;;;1.84;100.00;100789.06;5011850;28;20125;-72
2022/12/22 10:29:32;;;;;;;10.38;9.85;;;;;;;1.60;100.00;100783.81;5014033;28;20022;-72
2022/12/22 10:31:57;;;;;;;11.32;10.68;;;;;;;1.22;100.00;100773.47;5011657;28;20112;-73
2022/12/22 10:34:23;;;;;;;10.38;9.88;;;;;;;2.00;100.00;100780.06;5014269;28;20127;-74
2022/12/22 10:36:52;;;;;;;10.93;10.32;;;;;;;1.83;100.00;100771.66;5012996;28;20033;-73
2022/12/22 10:39:23;;;;;;;10.65;10.05;;;;;;;1.18;100.00;100766.81;5012853;28;20500;-73
2022/12/22 10:41:50;;;;;;;11.35;10.68;;;;;;;1.05;100.00;100763.38;5013057;28;20120;-76
2022/12/22 10:44:16;;;;;;;10.07;9.57;;;;;;;1.13;100.00;100768.91;5014251;28;20025;-73
2022/12/22 10:47:10;;;;;;;10.93;10.32;;;;;;;1.16;100.00;100763.44;5011479;28;20044;-74
2022/12/22 10:49:40;;;;;;;11.50;10.80;;;;;;;0.81;100.00;100753.72;5009302;28;20125;-74
2022/12/22 10:52:25;;;;;;;10.63;10.02;;;;;;;1.25;100.00;100754.97;5007498;28;20448;-74
2022/12/22 10:54:51;;;;;;;10.32;9.80;;;;;;;1.83;100.00;100765.59;5008150;28;20050;-74
2022/12/22 10:57:16;;;;;;;10.30;9.80;;;;;;;1.77;100.00;100751.22;5010579;28;20026;-74
2022/12/22 10:59:58;;;;;;;10.15;9.63;;;;;;;1.80;100.00;100750.97;5007596;28;20040;-75
2022/12/22 11:02:25;;;;;;;10.73;10.13;;;;;;;1.58;100.00;100751.72;5006709;28;20514;-73
2022/12/22 11:04:52;;;;;;;10.63;10.05;;;;;;;1.47;100.00;100762.13;5008569;28;20053;-74
2022/12/22 11:07:18;;;;;;;10.98;10.38;;;;;;;1.06;100.00;100757.22;5005266;28;20038;-75
2022/12/22 11:09:44;;;;;;;10.60;10.00;;;;;;;1.20;100.00;100751.84;5007602;28;20036;-73
2022/12/22 11:12:20;;;;;;;10.98;10.38;;;;;;;0.88;100.00;100740.22;5008316;28;20481;-75
2022/12/22 11:14:48;;;;;;;10.43;9.82;;;;;;;1.00;100.00;100763.69;5007584;28;20030;-75
2022/12/22 11:17:27;;;;;;;10.80;10.20;;;;;;;1.12;100.00;100764.63;5008269;28;20168;-75
2022/12/22 11:20:13;;;;;;;10.80;10.20;;;;;;;0.69;100.00;100765.00;5008993;28;20052;-75
2022/12/22 11:23:06;;;;;;;11.20;10.50;;;;;;;0.87;100.00;100752.44;5023061;28;20116;-75
2022/12/22 11:25:55;;;;;;;11.02;10.43;;;;;;;0.54;100.00;100760.84;5006378;28;20157;-74
2022/12/22 11:28:29;;;;;;;11.02;10.43;;;;;;;1.09;100.00;100759.59;5006052;28;20113;-75
2022/12/22 11:31:23;;;;;;;12.48;11.68;;;;;;;1.21;100.00;100753.53;5021374;28;20496;-75
2022/12/22 11:34:10;;;;;;;11.48;10.77;;;;;;;0.76;100.00;100736.69;5008711;28;20117;-75
2022/12/22 11:37:08;;;;;;;10.52;9.93;;;;;;;0.91;100.00;100738.22;5007452;28;20030;-74
2022/12/22 11:39:48;;;;;;;11.13;10.50;;;;;;;0.58;100.00;100736.16;5007685;28;20105;-73
2022/12/22 11:42:31;;;;;;;10.40;9.90;;;;;;;0.75;100.00;100735.88;5005236;28;20527;-72
2022/12/22 11:45:35;;;;;;;10.05;9.55;;;;;;;0.90;100.00;100739.19;5039425;28;20029;-72
2022/12/22 11:48:30;;;;;;;10.23;9.65;;;;;;;0.77;100.00;100720.91;5008901;28;20029;-74
2022/12/22 11:51:04;;;;;;;10.90;10.30;;;;;;;0.77;100.00;100727.91;5009079;28;20025;-74
2022/12/22 11:53:36;;;;;;;11.27;10.60;;;;;;;0.53;100.00;100720.84;5007290;28;20049;-74
2022/12/22 11:56:21;;;;;;;10.73;10.13;;;;;;;0.29;100.00;100735.53;5008813;28;20034;-74
2022/12/22 11:58:58;;;;;;;11.52;10.82;;;;;;;0.39;100.00;100720.13;5005566;28;20401;-74
2022/12/22 12:01:39;;;;;;;11.60;10.90;;;;;;;0.59;100.00;100724.81;5007443;28;20033;-72
2022/12/22 12:04:43;;;;;;;11.00;10.40;;;;;;;0.33;100.00;100725.75;5036872;28;20393;-73
2022/12/22 12:07:27;;;;;;;11.17;10.53;;;;;;;0.89;100.00;100710.56;5037984;28;20053;-74
2022/12/22 12:10:14;;;;;;;11.27;10.60;;;;;;;0.97;100.00;100706.47;5008237;28;20036;-74
2022/12/22 12:12:54;;;;;;;11.65;10.95;;;;;;;0.40;100.00;100703.53;5004769;28;20026;-74
2022/12/22 12:15:30;;;;;;;11.25;10.63;;;;;;;0.32;100.00;100705.81;5039189;28;20490;-76
2022/12/22 12:18:20;;;;;;;10.88;10.27;;;;;;;0.42;100.00;100699.84;5040001;28;20462;-74
2022/12/22 12:21:00;;;;;;;14.30;13.30;;;;;;;0.46;100.00;100692.66;5013239;28;20033;-73
2022/12/22 12:23:34;;;;;;;12.07;11.32;;;;;;;0.29;100.00;100701.63;5013362;28;20034;-72
2022/12/22 12:26:08;;;;;;;10.57;9.98;;;;;;;0.24;100.00;100694.13;5012423;28;20026;-74
2022/12/22 12:28:55;;;;;;;11.75;11.05;;;;;;;0.19;100.00;100698.81;5012786;28;20060;-74
2022/12/22 12:31:26;;;;;;;10.73;10.13;;;;;;;0.12;100.00;100707.16;5010629;28;20041;-74
2022/12/22 12:33:57;;;;;;;11.45;10.75;;;;;;;0.61;100.00;100701.22;5014058;28;20490;-73
2022/12/22 12:36:28;;;;;;;11.85;11.15;;;;;;;0.13;100.00;100708.81;5010200;28;20145;-74
2022/12/22 12:39:21;;;;;;;10.70;10.10;;;;;;;0.41;100.00;100702.56;5010017;28;20022;-74
2022/12/22 12:41:56;;;;;;;10.63;10.02;;;;;;;0.20;100.00;100717.91;5027342;28;20029;-71
2022/12/22 12:44:27;;;;;;;10.70;10.10;;;;;;;0.65;100.00;100711.31;5023312;28;20409;-73
2022/12/22 12:47:15;;;;;;;11.18;10.55;;;;;;;0.27;100.00;100709.56;5012307;28;20037;-71
2022/12/22 12:49:41;;;;;;;12.82;11.98;;;;;;;-0.04;100.00;100710.81;5009369;28;20531;-68
2022/12/22 12:52:10;;;;;;;10.20;9.70;;;;;;;0.23;100.00;100707.28;5011033;28;20061;-69
2022/12/22 12:54:48;;;;;;;12.85;12.00;;;;;;;0.24;100.00;100701.13;5006392;28;20529;-69
2022/12/22 12:57:22;;;;;;;11.20;10.60;;;;;;;0.30;100.00;100711.16;5008184;28;20397;-70
2022/12/22 12:59:49;;;;;;;;;;;;;;;0.13;100.00;100711.44;5007104;28;20022;-73
2022/12/22 13:02:26;;;;;;;9.45;9.02;;;;;;;-0.04;100.00;100709.97;5046590;28;19971;-73
2022/12/22 13:05:10;;;;;;;10.90;10.30;;;;;;;0.02;100.00;100713.94;5029367;28;20485;-70
2022/12/22 13:08:05;;;;;;;11.27;10.60;;;;;;;-0.13;100.00;100713.19;5013798;28;20610;-72
2022/12/22 13:10:36;;;;;;;10.05;9.55;;;;;;;-0.23;100.00;100715.56;5001114;28;20077;-75
2022/12/22 13:13:02;;;;;;;11.13;10.52;;;;;;;-0.27;100.00;100711.50;5015383;28;20026;-73
2022/12/22 13:15:40;;;;;;;10.82;10.23;;;;;;;0.04;100.00;100712.91;5013981;28;20041;-72
2022/12/22 13:18:37;;;;;;;9.75;9.25;;;;;;;-0.09;100.00;100699.84;5010551;28;20038;-73
2022/12/22 13:21:25;;;;;;;10.23;9.73;;;;;;;0.09;100.00;100684.75;5010658;28;20037;-74
2022/12/22 13:23:53;;;;;;;11.13;10.52;;;;;;;-0.02;100.00;100679.41;5012696;28;20448;-73
2022/12/22 13:26:25;;;;;;;10.00;9.50;;;;;;;-0.13;100.00;100681.91;5011532;28;20084;-71
2022/12/22 13:28:57;;;;;;;10.48;9.88;;;;;;;-0.24;100.00;100674.78;5011591;28;20026;-72
2022/12/22 13:31:34;;;;;;;10.27;9.77;;;;;;;-0.10;100.00;100672.09;5013218;28;20067;-71
2022/12/22 13:34:28;;;;;;;10.50;9.90;;;;;;;-0.07;100.00;100671.91;5031837;28;20029;-74
2022/12/22 13:36:57;;;;;;;10.65;10.05;;;;;;;-0.31;100.00;100669.13;5005133;28;20156;-70
2022/12/22 13:39:22;;;;;;;10.80;10.20;;;;;;;-0.32;100.00;100685.72;5002384;28;20038;-72
2022/12/22 13:41:50;;;;;;;10.77;10.18;;;;;;;-0.40;100.00;100694.97;5010510;28;20032;-74
2022/12/22 13:44:21;;;;;;;11.55;10.85;;;;;;;-0.20;100.00;100684.09;5009366;28;20112;-72
2022/12/22 13:46:47;;;;;;;11.23;10.57;;;;;;;-0.40;100.00;100681.94;5007584;28;20030;-72
2022/12/22 13:49:16;;;;;;;10.27;9.75;;;;;;;-0.31;100.00;100663.94;5010473;28;20029;-73
2022/12/22 13:51:42;;;;;;;11.30;10.68;;;;;;;-0.23;100.00;100676.44;5009978;28;20511;-73
2022/12/22 13:54:22;;;;;;;11.25;10.57;;;;;;;-0.39;100.00;100689.66;5011971;28;20126;-72
2022/12/22 13:56:50;;;;;;;10.00;9.50;;;;;;;-0.36;100.00;100675.63;5003191;28;20033;-73
2022/12/22 13:59:20;;;;;;;11.73;11.02;;;;;;;-0.32;100.00;100688.31;5010634;28;20037;-72
2022/12/22 14:01:50;;;;;;;12.00;11.27;;;;;;;-0.41;100.00;100681.13;5011416;28;20412;-72
2022/12/22 14:04:16;;;;;;;12.05;11.27;;;;;;;-0.54;100.00;100668.97;5009754;28;20022;-74
2022/12/22 14:06:41;;;;;;;13.65;12.68;;;;;;;-0.35;100.00;100693.75;5004249;28;20061;-73
2022/12/22 14:09:22;;;;;;;11.00;10.40;;;;;;;-0.40;100.00;100682.78;5010718;28;20037;-73
2022/12/22 14:12:09;;;;;;;10.38;9.80;;;;;;;-0.30;100.00;100689.06;5010360;28;20084;-74
2022/12/22 14:14:41;;;;;;;12.63;11.82;;;;;;;-0.60;100.00;100688.44;5007883;28;20026;-73
2022/12/22 14:17:28;;;;;;;10.88;10.27;;;;;;;-0.70;100.00;100692.59;5012138;28;20026;-72
2022/12/22 14:20:00;;;;;;;11.20;10.57;;;;;;;-0.67;100.00;100687.19;5002859;28;20041;-73
2022/12/22 14:22:37;;;;;;;11.98;11.25;;;;;;;-0.68;100.00;100685.50;5009530;28;20029;-73
2022/12/22 14:25:18;;;;;;;13.02;12.15;;;;;;;-0.74;100.00;100684.13;5004913;28;20026;-73
2022/12/22 14:27:55;;;;;;;11.60;10.90;;;;;;;-0.61;100.00;100686.78;5005725;28;20109;-72
2022/12/22 14:30:47;;;;;;;12.70;11.90;;;;;;;-0.75;100.00;100685.06;5008958;28;20068;-72
2022/12/22 14:33:27;;;;;;;11.10;10.50;;;;;;;-0.65;100.00;100680.94;5013652;28;20045;-71
2022/12/22 14:36:10;;;;;;;10.75;10.15;;;;;;;-0.68;100.00;100693.31;5006118;28;20034;-74
2022/12/22 14:38:47;;;;;;;10.30;9.80;;;;;;;-0.69;100.00;100676.84;5009474;28;20037;-71
2022/12/22 14:41:40;;;;;;;11.45;10.75;;;;;;;-0.71;100.00;100688.31;5003105;28;20270;-71
2022/12/22 14:44:12;;;;;;;10.75;10.15;;;;;;;-0.76;100.00;100680.78;5009555;28;20033;-73
2022/12/22 14:46:38;;;;;;;11.30;10.60;;;;;;;-0.75;100.00;100692.88;5014099;28;20052;-73
2022/12/22 14:49:03;;;;;;;11.02;10.43;;;;;;;-0.87;100.00;100691.91;5011668;28;20026;-74
2022/12/22 14:51:29;;;;;;;11.02;10.43;;;;;;;-0.88;100.00;100677.22;5010504;28;20053;-73
2022/12/22 14:53:58;;;;;;;10.07;9.57;;;;;;;-0.71;100.00;100690.94;5008660;28;20083;-73
2022/12/22 14:56:25;;;;;;;10.75;10.15;;;;;;;-0.97;100.00;100682.16;5004566;28;20505;-73
2022/12/22 14:59:07;;;;;;;10.30;9.80;;;;;;;-0.88;100.00;100694.63;5009613;28;20098;-73
2022/12/22 15:01:33;;;;;;;11.73;11.02;;;;;;;-0.79;100.00;100690.59;5010111;28;20069;-77